sensor_id;sensor_type;location;lat;lon;timestamp;pressure;altitude;pressure_sealevel;temperature;humidity
50349;BME280;36250;48.740;22.174;2022-11-15T00:00:33;100850.19;;;2.23;100.00
50349;BME280;36250;48.740;22.174;2022-11-15T00:02:59;100848.88;;;2.17;100.00
50349;BME280;36250;48.740;22.174;2022-11-15T00:05:24;100852.19;;;2.19;100.00
50349;BME280;36250;48.740;22.174;2022-11-15T00:07:50;100846.50;;;2.14;100.00
50349;BME280;36250;48.740;22.174;2022-11-15T00:10:15;100847.13;;;2.06;100.00
50349;BME280;36250;48.740;22.174;2022-11-15T00:12:41;100841.88;;;1.95;100.00
50349;BME280;36250;48.740;22.174;2022-11-15T00:15:06;100839.97;;;1.97;100.00
50349;BME280;36250;48.740;22.174;2022-11-15T00:17:32;100840.56;;;2.00;100.00
50349;BME280;36250;48.740;22.174;2022-11-15T00:19:57;100840.81;;;1.97;100.00
50349;BME280;36250;48.740;22.174;2022-11-15T00:22:23;100843.06;;;1.91;100.00
50349;BME280;36250;48.740;22.174;2022-11-15T00:24:48;100846.75;;;1.88;100.00
50349;BME280;36250;48.740;22.174;2022-11-15T00:27:13;100841.25;;;1.80;100.00
50349;BME280;36250;48.740;22.174;2022-11-15T00:29:39;100833.31;;;1.81;100.00
50349;BME280;36250;48.740;22.174;2022-11-15T00:32:09;100833.31;;;1.81;100.00
50349;BME280;36250;48.740;22.174;2022-11-15T00:34:34;100839.38;;;1.82;100.00
50349;BME280;36250;48.740;22.174;2022-11-15T00:36:59;100830.13;;;1.89;100.00
50349;BME280;36250;48.740;22.174;2022-11-15T00:39:25;100833.22;;;1.94;100.00
50349;BME280;36250;48.740;22.174;2022-11-15T00:41:50;100823.94;;;2.01;100.00
50349;BME280;36250;48.740;22.174;2022-11-15T00:44:15;100822.28;;;2.00;100.00
50349;BME280;36250;48.740;22.174;2022-11-15T00:46:40;100821.44;;;2.00;100.00
50349;BME280;36250;48.740;22.174;2022-11-15T00:49:06;100810.16;;;1.99;100.00
50349;BME280;36250;48.740;22.174;2022-11-15T00:51:31;100810.03;;;2.01;100.00
50349;BME280;36250;48.740;22.174;2022-11-15T00:53:56;100811.81;;;2.12;100.00
50349;BME280;36250;48.740;22.174;2022-11-15T00:56:22;100811.56;;;2.15;100.00
50349;BME280;36250;48.740;22.174;2022-11-15T00:58:47;100819.41;;;2.15;100.00
50349;BME280;36250;48.740;22.174;2022-11-15T01:01:13;100810.16;;;2.11;100.00
50349;BME280;36250;48.740;22.174;2022-11-15T01:03:40;100807.44;;;2.12;100.00
50349;BME280;36250;48.740;22.174;2022-11-15T01:06:09;100806.47;;;2.13;100.00
50349;BME280;36250;48.740;22.174;2022-11-15T01:08:35;100799.84;;;2.09;100.00
50349;BME280;36250;48.740;22.174;2022-11-15T01:11:06;100792.00;;;2.09;100.00
50349;BME280;36250;48.740;22.174;2022-11-15T01:13:32;100790.69;;;2.03;100.00
50349;BME280;36250;48.740;22.174;2022-11-15T01:15:59;100795.31;;;2.00;100.00
50349;BME280;36250;48.740;22.174;2022-11-15T01:18:24;100795.81;;;2.05;100.00
50349;BME280;36250;48.740;22.174;2022-11-15T01:20:49;100798.75;;;2.00;100.00
50349;BME280;36250;48.740;22.174;2022-11-15T01:23:15;100797.34;;;1.85;100.00
50349;BME280;36250;48.740;22.174;2022-11-15T01:25:40;100789.97;;;1.79;100.00
50349;BME280;36250;48.740;22.174;2022-11-15T01:28:05;100789.63;;;1.72;100.00
50349;BME280;36250;48.740;22.174;2022-11-15T01:30:31;100790.22;;;1.76;100.00
50349;BME280;36250;48.740;22.174;2022-11-15T01:32:56;100772.53;;;1.68;100.00
50349;BME280;36250;48.740;22.174;2022-11-15T01:35:21;100778.22;;;1.62;100.00
50349;BME280;36250;48.740;22.174;2022-11-15T01:37:47;100776.19;;;1.42;100.00
50349;BME280;36250;48.740;22.174;2022-11-15T01:40:12;100771.66;;;1.33;100.00
50349;BME280;36250;48.740;22.174;2022-11-15T01:42:38;100775.81;;;1.24;100.00
50349;BME280;36250;48.740;22.174;2022-11-15T01:45:03;100777.81;;;1.21;100.00
50349;BME280;36250;48.740;22.174;2022-11-15T01:47:31;100783.13;;;1.19;100.00
50349;BME280;36250;48.740;22.174;2022-11-15T01:50:00;100777.09;;;1.19;100.00
50349;BME280;36250;48.740;22.174;2022-11-15T01:52:29;100778.16;;;1.16;100.00
50349;BME280;36250;48.740;22.174;2022-11-15T01:57:33;100780.34;;;0.98;100.00
50349;BME280;36250;48.740;22.174;2022-11-15T02:00:00;100764.69;;;0.98;100.00
50349;BME280;36250;48.740;22.174;2022-11-15T02:02:26;100770.44;;;1.03;100.00
50349;BME280;36250;48.740;22.174;2022-11-15T02:04:52;100765.69;;;1.08;100.00
50349;BME280;36250;48.740;22.174;2022-11-15T02:07:19;100768.78;;;1.13;100.00
50349;BME280;36250;48.740;22.174;2022-11-15T02:09:46;100763.34;;;1.17;100.00
50349;BME280;36250;48.740;22.174;2022-11-15T02:12:14;100753.38;;;1.22;100.00
50349;BME280;36250;48.740;22.174;2022-11-15T02:14:43;100756.69;;;1.24;100.00
50349;BME280;36250;48.740;22.174;2022-11-15T02:22:58;100753.16;;;1.25;100.00
50349;BME280;36250;48.740;22.174;2022-11-15T02:30:55;100746.50;;;1.32;100.00
50349;BME280;36250;48.740;22.174;2022-11-15T02:33:42;100743.09;;;1.32;100.00
50349;BME280;36250;48.740;22.174;2022-11-15T02:36:14;100736.53;;;1.37;100.00
50349;BME280;36250;48.740;22.174;2022-11-15T02:41:43;100734.63;;;1.17;100.00
50349;BME280;36250;48.740;22.174;2022-11-15T02:44:13;100741.50;;;1.18;100.00
50349;BME280;36250;48.740;22.174;2022-11-15T02:46:49;100740.91;;;1.14;100.00
50349;BME280;36250;48.740;22.174;2022-11-15T02:49:34;100740.66;;;1.06;100.00
50349;BME280;36250;48.740;22.174;2022-11-15T02:52:01;100743.13;;;0.96;100.00
50349;BME280;36250;48.740;22.174;2022-11-15T02:54:30;100738.13;;;0.93;100.00
50349;BME280;36250;48.740;22.174;2022-11-15T02:57:02;100740.16;;;0.89;100.00
50349;BME280;36250;48.740;22.174;2022-11-15T02:59:51;100737.63;;;0.88;100.00
50349;BME280;36250;48.740;22.174;2022-11-15T03:10:44;100726.72;;;0.82;100.00
50349;BME280;36250;48.740;22.174;2022-11-15T03:15:50;100724.22;;;0.81;100.00
50349;BME280;36250;48.740;22.174;2022-11-15T03:18:33;100727.66;;;0.81;100.00
50349;BME280;36250;48.740;22.174;2022-11-15T03:21:04;100721.88;;;0.89;100.00
50349;BME280;36250;48.740;22.174;2022-11-15T03:23:31;100734.84;;;1.02;100.00
50349;BME280;36250;48.740;22.174;2022-11-15T03:25:59;100727.94;;;1.01;100.00
50349;BME280;36250;48.740;22.174;2022-11-15T03:28:34;100726.50;;;0.97;100.00
50349;BME280;36250;48.740;22.174;2022-11-15T03:31:03;100726.75;;;0.94;100.00
50349;BME280;36250;48.740;22.174;2022-11-15T03:33:52;100730.78;;;0.98;100.00
50349;BME280;36250;48.740;22.174;2022-11-15T03:36:21;100729.63;;;1.02;100.00
50349;BME280;36250;48.740;22.174;2022-11-15T03:38:48;100727.50;;;1.07;100.00
50349;BME280;36250;48.740;22.174;2022-11-15T03:41:23;100724.66;;;1.10;100.00
50349;BME280;36250;48.740;22.174;2022-11-15T03:43:57;100730.94;;;1.19;100.00
50349;BME280;36250;48.740;22.174;2022-11-15T03:46:39;100718.75;;;1.20;100.00
50349;BME280;36250;48.740;22.174;2022-11-15T03:49:19;100720.41;;;1.21;100.00
50349;BME280;36250;48.740;22.174;2022-11-15T03:51:47;100718.88;;;1.29;100.00
50349;BME280;36250;48.740;22.174;2022-11-15T03:54:13;100721.34;;;1.31;100.00
50349;BME280;36250;48.740;22.174;2022-11-15T03:56:38;100718.75;;;1.31;100.00
50349;BME280;36250;48.740;22.174;2022-11-15T03:59:03;100717.06;;;1.41;100.00
50349;BME280;36250;48.740;22.174;2022-11-15T04:01:29;100712.81;;;1.40;100.00
50349;BME280;36250;48.740;22.174;2022-11-15T04:03:54;100714.72;;;1.38;100.00
50349;BME280;36250;48.740;22.174;2022-11-15T04:06:19;100712.94;;;1.39;100.00
50349;BME280;36250;48.740;22.174;2022-11-15T04:08:45;100707.81;;;1.37;100.00
50349;BME280;36250;48.740;22.174;2022-11-15T04:11:10;100704.50;;;1.35;100.00
50349;BME280;36250;48.740;22.174;2022-11-15T04:13:35;100711.63;;;1.33;100.00
50349;BME280;36250;48.740;22.174;2022-11-15T04:16:01;100707.97;;;1.36;100.00
50349;BME280;36250;48.740;22.174;2022-11-15T04:18:26;100701.78;;;1.37;100.00
50349;BME280;36250;48.740;22.174;2022-11-15T04:20:51;100706.06;;;1.26;100.00
50349;BME280;36250;48.740;22.174;2022-11-15T04:23:35;100707.59;;;1.18;100.00
50349;BME280;36250;48.740;22.174;2022-11-15T04:26:21;100694.16;;;1.11;100.00
50349;BME280;36250;48.740;22.174;2022-11-15T04:28:46;100705.78;;;1.07;100.00
50349;BME280;36250;48.740;22.174;2022-11-15T04:31:31;100693.69;;;1.06;100.00
50349;BME280;36250;48.740;22.174;2022-11-15T04:33:56;100688.09;;;0.99;100.00
50349;BME280;36250;48.740;22.174;2022-11-15T04:36:22;100695.81;;;1.00;100.00
50349;BME280;36250;48.740;22.174;2022-11-15T04:39:07;100697.22;;;0.93;100.00
50349;BME280;36250;48.740;22.174;2022-11-15T04:41:32;100695.22;;;0.97;100.00
50349;BME280;36250;48.740;22.174;2022-11-15T04:43:57;100690.47;;;0.91;100.00
50349;BME280;36250;48.740;22.174;2022-11-15T04:46:24;100691.78;;;0.85;100.00
50349;BME280;36250;48.740;22.174;2022-11-15T04:48:50;100684.66;;;0.87;100.00
50349;BME280;36250;48.740;22.174;2022-11-15T04:51:15;100679.53;;;0.85;100.00
50349;BME280;36250;48.740;22.174;2022-11-15T04:53:41;100674.31;;;0.85;100.00
50349;BME280;36250;48.740;22.174;2022-11-15T04:56:06;100683.09;;;0.84;100.00
50349;BME280;36250;48.740;22.174;2022-11-15T04:58:32;100682.50;;;0.81;100.00
50349;BME280;36250;48.740;22.174;2022-11-15T05:00:57;100683.53;;;0.67;100.00
50349;BME280;36250;48.740;22.174;2022-11-15T05:03:22;100684.13;;;0.70;100.00
50349;BME280;36250;48.740;22.174;2022-11-15T05:06:06;100676.91;;;0.74;100.00
50349;BME280;36250;48.740;22.174;2022-11-15T05:08:32;100679.63;;;0.72;100.00
50349;BME280;36250;48.740;22.174;2022-11-15T05:10:57;100679.28;;;0.77;100.00
50349;BME280;36250;48.740;22.174;2022-11-15T05:13:23;100680.00;;;0.79;100.00
50349;BME280;36250;48.740;22.174;2022-11-15T05:15:48;100676.47;;;0.80;100.00
50349;BME280;36250;48.740;22.174;2022-11-15T05:18:13;100675.75;;;0.78;100.00
50349;BME280;36250;48.740;22.174;2022-11-15T05:20:38;100664.13;;;0.82;100.00
50349;BME280;36250;48.740;22.174;2022-11-15T05:23:04;100670.38;;;0.80;100.00
50349;BME280;36250;48.740;22.174;2022-11-15T05:25:29;100659.63;;;0.84;100.00
50349;BME280;36250;48.740;22.174;2022-11-15T05:27:55;100663.66;;;0.77;100.00
50349;BME280;36250;48.740;22.174;2022-11-15T05:30:20;100667.91;;;0.67;100.00
50349;BME280;36250;48.740;22.174;2022-11-15T05:32:45;100670.13;;;0.60;100.00
50349;BME280;36250;48.740;22.174;2022-11-15T05:35:19;100670.69;;;0.52;100.00
50349;BME280;36250;48.740;22.174;2022-11-15T05:37:47;100667.50;;;0.49;100.00
50349;BME280;36250;48.740;22.174;2022-11-15T05:40:13;100679.44;;;0.51;100.00
50349;BME280;36250;48.740;22.174;2022-11-15T05:42:38;100683.94;;;0.49;100.00
50349;BME280;36250;48.740;22.174;2022-11-15T05:45:05;100686.38;;;0.39;100.00
50349;BME280;36250;48.740;22.174;2022-11-15T05:47:32;100686.63;;;0.12;100.00
50349;BME280;36250;48.740;22.174;2022-11-15T05:49:59;100679.91;;;-0.04;100.00
50349;BME280;36250;48.740;22.174;2022-11-15T05:52:28;100692.53;;;-0.10;100.00
50349;BME280;36250;48.740;22.174;2022-11-15T05:54:55;100691.75;;;-0.24;100.00
50349;BME280;36250;48.740;22.174;2022-11-15T05:57:21;100693.22;;;-0.33;100.00
50349;BME280;36250;48.740;22.174;2022-11-15T05:59:46;100694.44;;;-0.25;100.00
50349;BME280;36250;48.740;22.174;2022-11-15T06:02:12;100692.00;;;-0.03;100.00
50349;BME280;36250;48.740;22.174;2022-11-15T06:04:37;100689.94;;;0.14;100.00
50349;BME280;36250;48.740;22.174;2022-11-15T06:07:03;100688.13;;;0.27;100.00
50349;BME280;36250;48.740;22.174;2022-11-15T06:09:28;100686.19;;;0.18;100.00
50349;BME280;36250;48.740;22.174;2022-11-15T06:11:53;100694.38;;;0.01;100.00
50349;BME280;36250;48.740;22.174;2022-11-15T06:14:19;100683.25;;;-0.02;100.00
50349;BME280;36250;48.740;22.174;2022-11-15T06:16:44;100691.56;;;0.04;100.00
50349;BME280;36250;48.740;22.174;2022-11-15T06:19:09;100697.25;;;0.09;100.00
50349;BME280;36250;48.740;22.174;2022-11-15T06:21:35;100696.41;;;0.21;100.00
50349;BME280;36250;48.740;22.174;2022-11-15T06:24:00;100704.13;;;0.34;100.00
50349;BME280;36250;48.740;22.174;2022-11-15T06:26:25;100707.38;;;0.38;100.00
50349;BME280;36250;48.740;22.174;2022-11-15T06:28:51;100705.38;;;0.41;100.00
50349;BME280;36250;48.740;22.174;2022-11-15T06:31:16;100700.38;;;0.38;100.00
50349;BME280;36250;48.740;22.174;2022-11-15T06:33:41;100695.16;;;0.38;100.00
50349;BME280;36250;48.740;22.174;2022-11-15T06:36:09;100684.63;;;0.40;100.00
50349;BME280;36250;48.740;22.174;2022-11-15T06:38:36;100689.16;;;0.49;100.00
50349;BME280;36250;48.740;22.174;2022-11-15T06:41:05;100696.53;;;0.55;100.00
50349;BME280;36250;48.740;22.174;2022-11-15T06:43:31;100681.59;;;0.57;100.00
50349;BME280;36250;48.740;22.174;2022-11-15T06:46:01;100688.75;;;0.67;100.00
50349;BME280;36250;48.740;22.174;2022-11-15T06:48:27;100681.19;;;0.75;100.00
50349;BME280;36250;48.740;22.174;2022-11-15T06:50:54;100686.88;;;0.80;100.00
50349;BME280;36250;48.740;22.174;2022-11-15T06:53:20;100694.09;;;0.77;100.00
50349;BME280;36250;48.740;22.174;2022-11-15T06:55:45;100691.38;;;0.78;100.00
50349;BME280;36250;48.740;22.174;2022-11-15T06:58:11;100683.66;;;0.77;100.00
50349;BME280;36250;48.740;22.174;2022-11-15T07:00:36;100689.97;;;0.74;100.00
50349;BME280;36250;48.740;22.174;2022-11-15T07:03:02;100681.94;;;0.53;100.00
50349;BME280;36250;48.740;22.174;2022-11-15T07:05:27;100693.72;;;0.34;100.00
50349;BME280;36250;48.740;22.174;2022-11-15T07:07:54;100687.28;;;0.51;100.00
50349;BME280;36250;48.740;22.174;2022-11-15T07:10:20;100685.91;;;0.70;100.00
50349;BME280;36250;48.740;22.174;2022-11-15T07:12:48;100683.16;;;0.60;100.00
50349;BME280;36250;48.740;22.174;2022-11-15T07:15:15;100677.72;;;0.63;100.00
50349;BME280;36250;48.740;22.174;2022-11-15T07:17:41;100675.59;;;0.80;100.00
50349;BME280;36250;48.740;22.174;2022-11-15T07:20:07;100669.44;;;0.81;100.00
50349;BME280;36250;48.740;22.174;2022-11-15T07:22:32;100664.38;;;0.91;100.00
50349;BME280;36250;48.740;22.174;2022-11-15T07:24:58;100672.91;;;0.93;100.00
50349;BME280;36250;48.740;22.174;2022-11-15T07:27:23;100667.81;;;0.91;100.00
50349;BME280;36250;48.740;22.174;2022-11-15T07:29:48;100667.47;;;0.96;100.00
50349;BME280;36250;48.740;22.174;2022-11-15T07:32:13;100666.19;;;1.01;100.00
50349;BME280;36250;48.740;22.174;2022-11-15T07:34:39;100665.13;;;1.15;100.00
50349;BME280;36250;48.740;22.174;2022-11-15T07:37:04;100669.63;;;1.36;100.00
50349;BME280;36250;48.740;22.174;2022-11-15T07:39:29;100660.13;;;1.58;100.00
50349;BME280;36250;48.740;22.174;2022-11-15T07:41:55;100661.28;;;1.65;100.00
50349;BME280;36250;48.740;22.174;2022-11-15T07:44:40;100654.06;;;1.69;100.00
50349;BME280;36250;48.740;22.174;2022-11-15T07:47:05;100665.09;;;1.61;100.00
50349;BME280;36250;48.740;22.174;2022-11-15T07:49:30;100656.31;;;1.62;100.00
50349;BME280;36250;48.740;22.174;2022-11-15T07:51:56;100660.94;;;1.70;100.00
50349;BME280;36250;48.740;22.174;2022-11-15T07:54:21;100661.41;;;1.75;100.00
50349;BME280;36250;48.740;22.174;2022-11-15T07:56:46;100651.56;;;1.67;100.00
50349;BME280;36250;48.740;22.174;2022-11-15T07:59:12;100648.69;;;1.70;100.00
50349;BME280;36250;48.740;22.174;2022-11-15T08:01:37;100645.25;;;1.81;100.00
50349;BME280;36250;48.740;22.174;2022-11-15T08:04:02;100647.22;;;2.00;100.00
50349;BME280;36250;48.740;22.174;2022-11-15T08:06:28;100651.03;;;1.96;100.00
50349;BME280;36250;48.740;22.174;2022-11-15T08:08:53;100645.03;;;1.73;100.00
50349;BME280;36250;48.740;22.174;2022-11-15T08:11:18;100640.25;;;1.78;100.00
50349;BME280;36250;48.740;22.174;2022-11-15T08:13:43;100643.75;;;2.00;100.00
50349;BME280;36250;48.740;22.174;2022-11-15T08:16:09;100640.06;;;2.02;100.00
50349;BME280;36250;48.740;22.174;2022-11-15T08:18:34;100635.09;;;1.99;100.00
50349;BME280;36250;48.740;22.174;2022-11-15T08:21:00;100640.63;;;2.17;100.00
50349;BME280;36250;48.740;22.174;2022-11-15T08:23:26;100638.22;;;2.47;100.00
50349;BME280;36250;48.740;22.174;2022-11-15T08:25:52;100639.06;;;2.48;100.00
50349;BME280;36250;48.740;22.174;2022-11-15T08:28:17;100637.84;;;2.30;100.00
50349;BME280;36250;48.740;22.174;2022-11-15T08:30:43;100645.47;;;2.43;100.00
50349;BME280;36250;48.740;22.174;2022-11-15T08:33:12;100646.31;;;2.44;100.00
50349;BME280;36250;48.740;22.174;2022-11-15T08:35:39;100642.56;;;2.37;100.00
50349;BME280;36250;48.740;22.174;2022-11-15T08:38:04;100636.06;;;2.52;100.00
50349;BME280;36250;48.740;22.174;2022-11-15T08:40:30;100620.44;;;2.62;100.00
50349;BME280;36250;48.740;22.174;2022-11-15T08:42:55;100626.09;;;2.67;100.00
50349;BME280;36250;48.740;22.174;2022-11-15T08:45:21;100630.13;;;2.50;100.00
50349;BME280;36250;48.740;22.174;2022-11-15T08:47:46;100631.25;;;2.36;100.00
50349;BME280;36250;48.740;22.174;2022-11-15T08:50:11;100618.69;;;2.51;100.00
50349;BME280;36250;48.740;22.174;2022-11-15T08:52:37;100615.53;;;2.69;100.00
50349;BME280;36250;48.740;22.174;2022-11-15T08:55:02;100616.06;;;2.72;100.00
50349;BME280;36250;48.740;22.174;2022-11-15T08:57:29;100612.13;;;2.78;100.00
50349;BME280;36250;48.740;22.174;2022-11-15T08:59:55;100615.75;;;2.87;100.00
50349;BME280;36250;48.740;22.174;2022-11-15T09:02:20;100611.28;;;2.78;100.00
50349;BME280;36250;48.740;22.174;2022-11-15T09:04:46;100618.84;;;2.71;100.00
50349;BME280;36250;48.740;22.174;2022-11-15T09:07:13;100614.75;;;2.78;100.00
50349;BME280;36250;48.740;22.174;2022-11-15T09:09:38;100609.72;;;2.65;100.00
50349;BME280;36250;48.740;22.174;2022-11-15T09:12:05;100609.88;;;2.73;100.00
50349;BME280;36250;48.740;22.174;2022-11-15T09:14:31;100611.88;;;2.81;100.00
50349;BME280;36250;48.740;22.174;2022-11-15T09:16:57;100613.28;;;2.64;100.00
50349;BME280;36250;48.740;22.174;2022-11-15T09:19:23;100608.75;;;2.66;100.00
50349;BME280;36250;48.740;22.174;2022-11-15T09:21:48;100608.94;;;2.74;100.00
50349;BME280;36250;48.740;22.174;2022-11-15T09:24:14;100599.75;;;2.80;100.00
50349;BME280;36250;48.740;22.174;2022-11-15T09:26:39;100607.16;;;3.06;100.00
50349;BME280;36250;48.740;22.174;2022-11-15T09:29:05;100601.75;;;3.39;100.00
50349;BME280;36250;48.740;22.174;2022-11-15T09:31:31;100600.97;;;3.58;100.00
50349;BME280;36250;48.740;22.174;2022-11-15T09:33:56;100599.31;;;3.57;100.00
50349;BME280;36250;48.740;22.174;2022-11-15T09:36:21;100586.94;;;3.69;100.00
50349;BME280;36250;48.740;22.174;2022-11-15T09:38:47;100580.03;;;3.87;100.00
50349;BME280;36250;48.740;22.174;2022-11-15T09:46:19;100561.63;;;4.46;100.00
50349;BME280;36250;48.740;22.174;2022-11-15T09:48:49;100555.41;;;4.47;100.00
50349;BME280;36250;48.740;22.174;2022-11-15T09:51:39;100550.78;;;4.69;100.00
50349;BME280;36250;48.740;22.174;2022-11-15T09:56:52;100542.59;;;4.82;100.00
50349;BME280;36250;48.740;22.174;2022-11-15T10:04:57;100526.13;;;5.18;100.00
50349;BME280;36250;48.740;22.174;2022-11-15T10:07:31;100526.88;;;5.10;100.00
50349;BME280;36250;48.740;22.174;2022-11-15T10:10:04;100519.94;;;4.81;100.00
50349;BME280;36250;48.740;22.174;2022-11-15T10:12:33;100528.03;;;4.70;100.00
50349;BME280;36250;48.740;22.174;2022-11-15T10:15:06;100532.59;;;4.96;100.00
50349;BME280;36250;48.740;22.174;2022-11-15T10:18:01;100529.38;;;5.02;100.00
50349;BME280;36250;48.740;22.174;2022-11-15T10:20:32;100517.22;;;5.01;100.00
50349;BME280;36250;48.740;22.174;2022-11-15T10:23:05;100517.50;;;5.26;100.00
50349;BME280;36250;48.740;22.174;2022-11-15T10:25:33;100520.34;;;5.50;100.00
50349;BME280;36250;48.740;22.174;2022-11-15T10:30:38;100501.34;;;6.11;100.00
50349;BME280;36250;48.740;22.174;2022-11-15T10:33:34;100491.44;;;6.31;100.00
50349;BME280;36250;48.740;22.174;2022-11-15T10:44:09;100468.25;;;6.70;100.00
50349;BME280;36250;48.740;22.174;2022-11-15T10:46:38;100464.59;;;6.54;100.00
50349;BME280;36250;48.740;22.174;2022-11-15T10:51:43;100462.28;;;6.51;100.00
50349;BME280;36250;48.740;22.174;2022-11-15T10:54:11;100471.50;;;6.55;100.00
50349;BME280;36250;48.740;22.174;2022-11-15T10:56:39;100477.53;;;6.47;100.00
50349;BME280;36250;48.740;22.174;2022-11-15T10:59:15;100465.66;;;6.08;100.00
50349;BME280;36250;48.740;22.174;2022-11-15T11:01:48;100469.66;;;5.94;100.00
50349;BME280;36250;48.740;22.174;2022-11-15T11:04:13;100464.94;;;5.80;100.00
50349;BME280;36250;48.740;22.174;2022-11-15T11:09:35;100465.94;;;5.61;100.00
50349;BME280;36250;48.740;22.174;2022-11-15T11:12:02;100462.47;;;5.60;100.00
50349;BME280;36250;48.740;22.174;2022-11-15T11:14:34;100448.97;;;5.73;100.00
50349;BME280;36250;48.740;22.174;2022-11-15T11:27:40;100430.47;;;6.36;100.00
50349;BME280;36250;48.740;22.174;2022-11-15T11:30:40;100425.13;;;6.54;100.00
50349;BME280;36250;48.740;22.174;2022-11-15T11:46:43;100407.13;;;6.41;100.00
50349;BME280;36250;48.740;22.174;2022-11-15T11:49:23;100402.38;;;6.45;100.00
50349;BME280;36250;48.740;22.174;2022-11-15T11:52:00;100388.56;;;6.43;100.00
50349;BME280;36250;48.740;22.174;2022-11-15T11:54:37;100388.69;;;6.76;100.00
50349;BME280;36250;48.740;22.174;2022-11-15T11:57:16;100379.28;;;6.81;100.00
50349;BME280;36250;48.740;22.174;2022-11-15T11:59:48;100374.00;;;6.73;100.00
50349;BME280;36250;48.740;22.174;2022-11-15T12:02:27;100370.72;;;6.71;100.00
50349;BME280;36250;48.740;22.174;2022-11-15T12:05:03;100372.75;;;7.02;100.00
50349;BME280;36250;48.740;22.174;2022-11-15T12:07:33;100361.38;;;7.02;100.00
50349;BME280;36250;48.740;22.174;2022-11-15T12:10:11;100360.25;;;7.21;100.00
50349;BME280;36250;48.740;22.174;2022-11-15T12:12:55;100372.25;;;6.99;100.00
50349;BME280;36250;48.740;22.174;2022-11-15T12:15:27;100364.53;;;7.05;100.00
50349;BME280;36250;48.740;22.174;2022-11-15T12:17:55;100360.00;;;8.68;100.00
50349;BME280;36250;48.740;22.174;2022-11-15T12:20:25;100358.09;;;11.96;100.00
50349;BME280;36250;48.740;22.174;2022-11-15T12:23:05;100344.06;;;15.16;100.00
50349;BME280;36250;48.740;22.174;2022-11-15T12:25:36;100335.94;;;13.00;100.00
50349;BME280;36250;48.740;22.174;2022-11-15T12:28:17;100343.59;;;10.85;100.00
50349;BME280;36250;48.740;22.174;2022-11-15T12:30:51;100336.09;;;10.00;100.00
50349;BME280;36250;48.740;22.174;2022-11-15T12:33:38;100342.13;;;9.25;100.00
50349;BME280;36250;48.740;22.174;2022-11-15T12:36:38;100344.94;;;8.46;100.00
50349;BME280;36250;48.740;22.174;2022-11-15T12:39:08;100334.59;;;7.88;100.00
50349;BME280;36250;48.740;22.174;2022-11-15T12:41:38;100333.84;;;7.62;100.00
50349;BME280;36250;48.740;22.174;2022-11-15T12:44:04;100328.94;;;7.43;100.00
50349;BME280;36250;48.740;22.174;2022-11-15T12:49:41;100323.84;;;6.91;100.00
50349;BME280;36250;48.740;22.174;2022-11-15T12:59:50;100300.97;;;7.17;100.00
50349;BME280;36250;48.740;22.174;2022-11-15T13:17:49;100284.78;;;8.01;100.00
50349;BME280;36250;48.740;22.174;2022-11-15T13:20:18;100290.09;;;7.36;100.00
50349;BME280;36250;48.740;22.174;2022-11-15T13:25:43;100283.53;;;6.74;100.00
50349;BME280;36250;48.740;22.174;2022-11-15T13:33:17;100279.81;;;6.17;100.00
50349;BME280;36250;48.740;22.174;2022-11-15T13:35:46;100287.19;;;6.14;100.00
50349;BME280;36250;48.740;22.174;2022-11-15T13:38:26;100285.19;;;6.07;100.00
50349;BME280;36250;48.740;22.174;2022-11-15T13:40:52;100278.94;;;6.08;100.00
50349;BME280;36250;48.740;22.174;2022-11-15T13:46:06;100272.13;;;5.98;100.00
50349;BME280;36250;48.740;22.174;2022-11-15T13:48:33;100270.84;;;6.02;100.00
50349;BME280;36250;48.740;22.174;2022-11-15T13:51:00;100267.47;;;6.18;100.00
50349;BME280;36250;48.740;22.174;2022-11-15T13:53:26;100257.84;;;6.68;100.00
50349;BME280;36250;48.740;22.174;2022-11-15T13:55:58;100262.63;;;6.81;100.00
50349;BME280;36250;48.740;22.174;2022-11-15T13:58:24;100265.09;;;6.66;100.00
50349;BME280;36250;48.740;22.174;2022-11-15T14:01:01;100252.56;;;6.51;100.00
50349;BME280;36250;48.740;22.174;2022-11-15T14:03:29;100258.97;;;6.41;100.00
50349;BME280;36250;48.740;22.174;2022-11-15T14:08:27;100252.22;;;6.30;100.00
50349;BME280;36250;48.740;22.174;2022-11-15T14:11:25;100254.84;;;6.38;100.00
50349;BME280;36250;48.740;22.174;2022-11-15T14:14:11;100263.59;;;6.47;100.00
50349;BME280;36250;48.740;22.174;2022-11-15T14:16:40;100263.91;;;6.44;100.00
50349;BME280;36250;48.740;22.174;2022-11-15T14:19:10;100264.56;;;6.46;100.00
50349;BME280;36250;48.740;22.174;2022-11-15T14:21:36;100255.03;;;6.45;100.00
50349;BME280;36250;48.740;22.174;2022-11-15T14:24:21;100251.56;;;6.44;100.00
50349;BME280;36250;48.740;22.174;2022-11-15T14:26:46;100244.66;;;6.35;100.00
50349;BME280;36250;48.740;22.174;2022-11-15T14:29:28;100240.19;;;6.19;100.00
50349;BME280;36250;48.740;22.174;2022-11-15T14:32:11;100237.94;;;5.98;100.00
50349;BME280;36250;48.740;22.174;2022-11-15T14:34:37;100219.81;;;5.78;100.00
50349;BME280;36250;48.740;22.174;2022-11-15T14:37:02;100232.22;;;5.59;100.00
50349;BME280;36250;48.740;22.174;2022-11-15T14:39:27;100215.91;;;5.47;100.00
50349;BME280;36250;48.740;22.174;2022-11-15T14:41:53;100218.16;;;5.42;100.00
50349;BME280;36250;48.740;22.174;2022-11-15T14:44:18;100210.47;;;5.41;100.00
50349;BME280;36250;48.740;22.174;2022-11-15T14:46:45;100207.84;;;5.41;100.00
50349;BME280;36250;48.740;22.174;2022-11-15T14:49:11;100210.13;;;5.35;100.00